Time;durP1;ratioP1;P1;durP2;ratioP2;P2;SDS_P1;SDS_P2;PMS_P1;PMS_P2;Temp;Humidity;BMP_temperature;BMP_pressure;BME280_temperature;BME280_humidity;BME280_pressure;Samples;Min_cycle;Max_cycle;Signal;HPM_P1;HPM_P2
2022/09/19 00:02:09;;;;;;;6.47;1.40;;;;;;;12.15;100.00;101685.91;2614988;36;20113;-55
2022/09/19 00:04:37;;;;;;;13.52;1.77;;;;;;;12.13;100.00;101682.50;2615053;31;20022;-56
2022/09/19 00:07:05;;;;;;;7.57;1.45;;;;;;;12.02;100.00;101696.84;2615824;31;20069;-54
2022/09/19 00:09:35;;;;;;;8.02;1.30;;;;;;;11.91;100.00;101686.91;2614181;36;20035;-51
2022/09/19 00:12:04;;;;;;;9.93;1.67;;;;;;;11.97;100.00;101695.50;2613194;36;20034;-53
2022/09/19 00:14:34;;;;;;;5.43;1.02;;;;;;;11.97;100.00;101687.41;2615689;36;20026;-55
2022/09/19 00:17:08;;;;;;;8.07;1.65;;;;;;;11.92;100.00;101690.47;2615431;36;20038;-51
2022/09/19 00:19:37;;;;;;;10.20;1.70;;;;;;;11.85;100.00;101687.41;2614716;36;20062;-53
2022/09/19 00:22:07;;;;;;;5.60;2.05;;;;;;;11.77;100.00;101687.16;2608683;36;20043;-56
2022/09/19 00:24:49;;;;;;;10.20;2.00;;;;;;;11.78;100.00;101683.50;2614302;36;20031;-56
2022/09/19 00:27:20;;;;;;;12.93;1.50;;;;;;;11.89;100.00;101691.56;2615566;36;20668;-52
2022/09/19 00:29:49;;;;;;;7.78;1.48;;;;;;;11.95;100.00;101686.69;2614165;36;20041;-50
2022/09/19 00:32:20;;;;;;;;;;;;;;;11.96;100.00;101685.72;2615385;36;20172;-53
2022/09/19 00:34:54;;;;;;;8.27;1.52;;;;;;;11.95;100.00;101684.00;2615136;36;20368;-54
2022/09/19 00:37:24;;;;;;;8.65;1.58;;;;;;;11.97;100.00;101676.63;2615751;36;20154;-50
2022/09/19 00:39:54;;;;;;;6.78;1.30;;;;;;;11.98;100.00;101679.19;2612814;36;20034;-50
2022/09/19 00:42:25;;;;;;;8.45;1.83;;;;;;;12.05;100.00;101679.56;2615033;36;20462;-52
2022/09/19 00:45:03;;;;;;;7.43;1.40;;;;;;;12.18;100.00;101684.81;2615065;31;20528;-52
2022/09/19 00:47:39;;;;;;;8.10;1.40;;;;;;;12.24;100.00;101681.59;2615622;36;20376;-52
2022/09/19 00:50:14;;;;;;;9.48;1.58;;;;;;;12.27;100.00;101684.91;2615102;31;20061;-50
2022/09/19 00:52:49;;;;;;;7.68;1.20;;;;;;;12.19;100.00;101684.69;2614181;36;20065;-50
2022/09/19 00:55:18;;;;;;;7.32;1.80;;;;;;;12.30;100.00;101683.78;2613348;36;20462;-53
2022/09/19 00:58:05;;;;;;;8.55;2.85;;;;;;;12.31;100.00;101682.81;2613887;36;20035;-50
2022/09/19 01:00:34;;;;;;;5.97;1.35;;;;;;;12.40;100.00;101684.75;2614768;36;20026;-50
2022/09/19 01:03:09;;;;;;;;;;;;;;;12.48;100.00;101688.66;2614911;36;20042;-50
2022/09/19 01:05:48;;;;;;;7.40;1.02;;;;;;;12.35;100.00;101681.59;2614017;36;19969;-54
2022/09/19 01:08:37;;;;;;;8.40;1.75;;;;;;;12.30;100.00;101693.75;2614329;31;20034;-50
2022/09/19 01:11:18;;;;;;;2.65;1.02;;;;;;;12.25;100.00;101703.06;2614396;36;20057;-50
2022/09/19 01:13:58;;;;;;;6.57;1.13;;;;;;;12.08;100.00;101703.59;2613755;36;20065;-51
2022/09/19 01:16:35;;;;;;;10.68;1.88;;;;;;;12.16;100.00;101711.94;2614231;31;20034;-52
2022/09/19 01:19:25;;;;;;;5.75;1.13;;;;;;;12.13;100.00;101712.19;2613294;36;20030;-54
2022/09/19 01:22:01;;;;;;;9.32;1.83;;;;;;;12.26;100.00;101720.13;2616265;36;20038;-51
2022/09/19 01:25:00;;;;;;;10.52;1.70;;;;;;;12.24;100.00;101722.94;2615286;31;20038;-50
2022/09/19 01:27:59;;;;;;;6.30;1.77;;;;;;;12.30;100.00;101728.84;2614855;36;21433;-50
2022/09/19 01:30:28;;;;;;;5.93;2.10;;;;;;;12.35;100.00;101719.38;2615568;36;20073;-49
2022/09/19 01:33:02;;;;;;;10.77;1.40;;;;;;;12.43;100.00;101722.28;2616058;36;20022;-54
2022/09/19 01:35:34;;;;;;;8.35;1.58;;;;;;;12.51;100.00;101715.41;2611025;36;20604;-47
2022/09/19 01:38:07;;;;;;;6.88;1.60;;;;;;;12.56;100.00;101718.59;2616015;36;20033;-50
2022/09/19 01:40:36;;;;;;;11.48;2.05;;;;;;;12.54;100.00;101712.44;2615100;36;20534;-52
2022/09/19 01:43:07;;;;;;;3.78;1.40;;;;;;;12.51;100.00;101718.94;2615936;36;20034;-50
2022/09/19 01:45:38;;;;;;;8.65;1.50;;;;;;;12.43;100.00;101730.38;2607176;36;20518;-52
2022/09/19 01:48:16;;;;;;;6.70;1.70;;;;;;;12.51;100.00;101735.13;2615797;31;20034;-53
2022/09/19 01:51:02;;;;;;;8.07;1.35;;;;;;;12.38;100.00;101735.31;2615554;36;20038;-55
2022/09/19 01:53:46;;;;;;;4.95;1.38;;;;;;;12.40;100.00;101732.50;2616176;36;20023;-51
2022/09/19 01:56:28;;;;;;;8.18;1.80;;;;;;;12.44;100.00;101731.25;2614842;31;20398;-51
2022/09/19 01:59:06;;;;;;;7.80;1.88;;;;;;;12.40;100.00;101722.53;2615267;36;20711;-53
2022/09/19 02:01:42;;;;;;;3.78;1.20;;;;;;;12.50;100.00;101714.53;2615367;36;20038;-51
2022/09/19 02:04:19;;;;;;;9.93;1.42;;;;;;;12.54;100.00;101718.69;2615327;36;20457;-52
2022/09/19 02:06:52;;;;;;;7.55;1.10;;;;;;;12.38;100.00;101726.34;2616225;36;20508;-51
2022/09/19 02:09:28;;;;;;;6.32;1.20;;;;;;;12.41;100.00;101723.38;2615836;36;20030;-55
2022/09/19 02:12:01;;;;;;;6.22;1.45;;;;;;;12.47;100.00;101733.69;2614000;36;20062;-52
2022/09/19 02:14:35;;;;;;;7.78;1.20;;;;;;;12.48;100.00;101730.00;2615421;36;20034;-53
2022/09/19 02:17:07;;;;;;;13.32;1.23;;;;;;;12.42;100.00;101735.91;2615541;36;20061;-54
2022/09/19 02:19:42;;;;;;;11.43;2.58;;;;;;;12.43;100.00;101734.94;2615107;36;20071;-53
2022/09/19 02:22:20;;;;;;;6.57;1.40;;;;;;;12.43;100.00;101743.03;2615193;36;20026;-54
2022/09/19 02:24:51;;;;;;;5.70;1.45;;;;;;;12.44;100.00;101736.66;2615411;36;20030;-54
2022/09/19 02:27:23;;;;;;;5.10;1.33;;;;;;;12.45;100.00;101730.25;2616127;31;20114;-54
2022/09/19 02:29:59;;;;;;;11.23;1.55;;;;;;;12.47;100.00;101744.50;2614637;36;20030;-53
2022/09/19 02:32:28;;;;;;;8.73;1.27;;;;;;;12.46;100.00;101736.53;2615250;36;20034;-54
2022/09/19 02:34:59;;;;;;;7.75;1.42;;;;;;;12.50;100.00;101744.25;2615627;36;20023;-54
2022/09/19 02:37:32;;;;;;;4.25;1.08;;;;;;;12.49;100.00;101745.22;2616588;36;20392;-53
2022/09/19 02:40:05;;;;;;;6.93;1.00;;;;;;;12.46;100.00;101742.78;2615383;36;20435;-53
2022/09/19 02:42:43;;;;;;;4.32;1.25;;;;;;;12.41;100.00;101750.38;2615900;31;20041;-54
2022/09/19 02:45:19;;;;;;;5.80;1.38;;;;;;;12.54;100.00;101747.53;2614780;36;20610;-51
2022/09/19 02:47:52;;;;;;;10.80;1.25;;;;;;;12.52;100.00;101747.66;2614792;36;20447;-49
2022/09/19 02:50:26;;;;;;;7.68;1.70;;;;;;;12.47;100.00;101746.31;2615546;36;20038;-54
2022/09/19 02:52:57;;;;;;;8.85;1.33;;;;;;;12.52;100.00;101741.41;2615978;31;20435;-53
2022/09/19 02:55:31;;;;;;;6.88;1.15;;;;;;;12.52;100.00;101747.66;2615217;31;20153;-54
2022/09/19 02:58:03;;;;;;;10.52;1.75;;;;;;;12.58;100.00;101752.56;2615313;36;20535;-52
2022/09/19 03:00:38;;;;;;;8.18;1.52;;;;;;;12.65;100.00;101742.09;2613702;36;20145;-54
2022/09/19 03:04:11;;;;;;;7.95;1.52;;;;;;;12.72;100.00;101739.72;2614224;36;20039;-52
2022/09/19 03:06:03;;;;;;;9.27;1.38;;;;;;;12.72;100.00;101745.13;2615753;36;20019;-53
2022/09/19 03:08:35;;;;;;;8.82;1.42;;;;;;;12.71;100.00;101746.16;2615430;36;20046;-51
2022/09/19 03:11:07;;;;;;;9.98;1.35;;;;;;;12.77;100.00;101738.38;2615339;36;20065;-50
2022/09/19 03:13:38;;;;;;;8.85;1.17;;;;;;;12.70;100.00;101739.88;2615720;31;20037;-54
2022/09/19 03:16:12;;;;;;;9.60;1.20;;;;;;;12.80;100.00;101739.97;2615251;36;20054;-51
2022/09/19 03:18:45;;;;;;;13.52;1.40;;;;;;;12.88;100.00;101734.78;2615135;36;20046;-51
2022/09/19 03:21:14;;;;;;;3.53;1.10;;;;;;;12.92;100.00;101738.91;2616097;31;20042;-53
2022/09/19 03:23:46;;;;;;;5.72;1.45;;;;;;;12.86;100.00;101744.84;2615385;36;20416;-53
2022/09/19 03:26:16;;;;;;;5.00;1.13;;;;;;;12.80;100.00;101746.22;2614297;36;20045;-55
2022/09/19 03:28:45;;;;;;;6.15;1.17;;;;;;;12.64;100.00;101753.88;2615432;36;20022;-55
2022/09/19 03:31:17;;;;;;;3.95;1.13;;;;;;;12.56;100.00;101740.19;2615504;36;20716;-54
2022/09/19 03:33:46;;;;;;;6.15;1.20;;;;;;;12.60;100.00;101739.81;2614329;36;20038;-50
2022/09/19 03:36:14;;;;;;;7.18;2.00;;;;;;;12.42;100.00;101752.97;2615584;31;20484;-53
2022/09/19 03:38:44;;;;;;;8.47;1.17;;;;;;;12.46;100.00;101756.28;2615647;36;20029;-54
2022/09/19 03:41:13;;;;;;;6.03;1.27;;;;;;;12.47;100.00;101760.72;2613997;31;20054;-56
2022/09/19 03:43:42;;;;;;;12.40;1.33;;;;;;;12.44;100.00;101758.25;2614025;36;20042;-53
2022/09/19 03:46:11;;;;;;;4.40;0.65;;;;;;;12.46;100.00;101769.78;2615533;36;20026;-52
2022/09/19 03:48:44;;;;;;;7.38;1.15;;;;;;;12.49;100.00;101769.53;2593946;36;20046;-53
2022/09/19 03:51:13;;;;;;;4.97;1.42;;;;;;;12.47;100.00;101782.31;2614882;36;20432;-53
2022/09/19 03:53:42;;;;;;;3.60;0.98;;;;;;;12.48;100.00;101766.94;2613807;36;20077;-52
2022/09/19 03:56:11;;;;;;;4.45;1.30;;;;;;;12.53;100.00;101767.41;2615091;31;20431;-56
2022/09/19 03:58:40;;;;;;;8.93;1.20;;;;;;;12.63;100.00;101771.06;2615126;31;20050;-51
2022/09/19 04:01:09;;;;;;;5.63;0.98;;;;;;;12.68;100.00;101771.56;2613514;36;20412;-57
2022/09/19 04:03:37;;;;;;;8.50;1.60;;;;;;;12.70;100.00;101776.84;2611754;36;20034;-55
2022/09/19 04:06:09;;;;;;;4.28;1.30;;;;;;;12.71;100.00;101776.72;2614301;36;20061;-52
2022/09/19 04:08:38;;;;;;;8.02;1.20;;;;;;;12.56;100.00;101781.53;2615148;36;20553;-54
2022/09/19 04:11:06;;;;;;;5.07;1.30;;;;;;;12.63;100.00;101779.16;2614425;36;20562;-52
2022/09/19 04:13:35;;;;;;;8.55;1.10;;;;;;;12.56;100.00;101778.84;2613431;36;20034;-52
2022/09/19 04:16:04;;;;;;;7.47;1.23;;;;;;;12.58;100.00;101787.66;2614152;36;20035;-51
2022/09/19 04:18:32;;;;;;;9.27;1.30;;;;;;;12.50;100.00;101787.44;2614613;36;20026;-53
2022/09/19 04:21:00;;;;;;;2.55;1.13;;;;;;;12.44;100.00;101793.38;2615155;36;20034;-54
2022/09/19 04:23:32;;;;;;;5.03;1.00;;;;;;;12.45;100.00;101795.06;2614743;36;20073;-54
2022/09/19 04:26:04;;;;;;;9.63;1.40;;;;;;;12.44;100.00;101790.66;2614649;36;20038;-55
2022/09/19 04:28:32;;;;;;;5.82;1.17;;;;;;;12.49;100.00;101793.81;2614350;36;20039;-56
2022/09/19 04:31:01;;;;;;;7.72;1.55;;;;;;;12.50;100.00;101792.84;2611620;36;20046;-54
2022/09/19 04:33:29;;;;;;;4.27;1.23;;;;;;;12.54;100.00;101790.75;2613326;36;20072;-52
2022/09/19 04:36:00;;;;;;;7.10;1.30;;;;;;;12.60;100.00;101799.22;2615311;36;20306;-51
2022/09/19 04:38:32;;;;;;;5.53;0.90;;;;;;;12.59;100.00;101793.94;2613811;36;20034;-54
2022/09/19 04:41:00;;;;;;;6.53;1.27;;;;;;;12.58;100.00;101795.75;2611719;36;20039;-54
2022/09/19 04:43:31;;;;;;;1.92;1.00;;;;;;;12.59;100.00;101793.94;2615512;36;20042;-54
2022/09/19 04:46:01;;;;;;;6.35;1.67;;;;;;;12.56;100.00;101803.16;2614932;36;20038;-51
2022/09/19 04:48:30;;;;;;;;;;;;;;;12.59;100.00;101813.69;2614672;31;20041;-51
2022/09/19 04:50:58;;;;;;;5.70;1.27;;;;;;;12.55;100.00;101812.22;2614394;36;19977;-53
2022/09/19 04:53:33;;;;;;;10.00;1.48;;;;;;;12.54;100.00;101815.91;2615324;36;20046;-55
2022/09/19 04:56:04;;;;;;;10.82;1.48;;;;;;;12.53;100.00;101819.59;2614251;36;20038;-53
2022/09/19 04:58:40;;;;;;;4.88;1.00;;;;;;;12.55;100.00;101820.31;2614383;36;20031;-52
2022/09/19 05:01:10;;;;;;;8.70;1.40;;;;;;;12.59;100.00;101813.69;2613312;31;20030;-54
2022/09/19 05:03:43;;;;;;;7.18;1.35;;;;;;;12.65;100.00;101808.75;2612941;36;20045;-54
2022/09/19 05:06:12;;;;;;;6.93;1.33;;;;;;;12.67;100.00;101813.06;2614297;31;20034;-50
2022/09/19 05:08:41;;;;;;;6.22;1.27;;;;;;;12.62;100.00;101816.13;2613829;36;20081;-53
2022/09/19 05:11:13;;;;;;;9.05;1.92;;;;;;;12.72;100.00;101823.47;2611385;36;20041;-54
2022/09/19 05:13:41;;;;;;;6.10;1.20;;;;;;;12.64;100.00;101820.56;2615528;36;20049;-53
2022/09/19 05:16:13;;;;;;;4.00;1.10;;;;;;;12.64;100.00;101817.88;2613782;36;20049;-51
2022/09/19 05:18:42;;;;;;;5.82;1.40;;;;;;;12.52;100.00;101825.97;2612452;31;20038;-54
2022/09/19 05:21:13;;;;;;;5.80;0.95;;;;;;;12.48;100.00;101832.59;2612373;31;21713;-54
2022/09/19 05:23:42;;;;;;;4.22;1.17;;;;;;;12.43;100.00;101830.28;2612124;36;20097;-50
2022/09/19 05:26:16;;;;;;;5.28;1.00;;;;;;;12.58;100.00;101836.28;2613753;36;20139;-52
2022/09/19 05:28:45;;;;;;;3.53;1.00;;;;;;;12.68;100.00;101843.66;2616244;31;20040;-53
2022/09/19 05:31:16;;;;;;;4.28;1.08;;;;;;;12.62;100.00;101835.03;2612262;36;20046;-50
2022/09/19 05:33:44;;;;;;;6.47;1.00;;;;;;;12.69;100.00;101839.94;2606205;36;20037;-56
2022/09/19 05:36:13;;;;;;;3.83;1.00;;;;;;;12.64;100.00;101845.72;2613219;36;20034;-55
2022/09/19 05:38:43;;;;;;;5.05;1.20;;;;;;;12.67;100.00;101848.16;2612937;36;20034;-52
2022/09/19 05:41:14;;;;;;;2.90;0.90;;;;;;;12.65;100.00;101843.88;2612438;36;20030;-53
2022/09/19 05:43:42;;;;;;;5.95;1.10;;;;;;;12.69;100.00;101840.81;2612886;36;20034;-55
2022/09/19 05:46:11;;;;;;;4.28;0.75;;;;;;;12.75;100.00;101848.41;2613482;31;20105;-55
2022/09/19 05:48:40;;;;;;;3.10;1.05;;;;;;;12.74;100.00;101843.13;2612643;36;20039;-55
2022/09/19 05:51:08;;;;;;;4.07;1.38;;;;;;;12.78;100.00;101852.72;2612992;36;20027;-54
2022/09/19 05:56:21;;;;;;;7.75;1.35;;;;;;;12.84;100.00;101859.41;2614390;36;20053;-52
2022/09/19 05:58:49;;;;;;;5.90;1.35;;;;;;;12.86;100.00;101858.31;2612670;31;20042;-53
2022/09/19 06:01:17;;;;;;;8.40;1.30;;;;;;;12.89;100.00;101858.06;2612536;36;20038;-53
2022/09/19 06:03:45;;;;;;;4.68;1.10;;;;;;;12.95;100.00;101862.94;2613627;36;20045;-54
2022/09/19 06:06:18;;;;;;;8.88;1.73;;;;;;;12.96;100.00;101863.84;2616315;36;20038;-54
2022/09/19 06:08:47;;;;;;;6.32;1.35;;;;;;;12.91;100.00;101861.50;2615598;36;20038;-54
2022/09/19 06:11:16;;;;;;;;;;;;;;;12.95;100.00;101854.00;2614307;36;20559;-53
2022/09/19 06:16:27;;;;;;;6.18;1.17;;;;;;;13.07;100.00;101861.09;2613672;36;20154;-56
2022/09/19 06:18:56;;;;;;;8.98;1.20;;;;;;;13.05;100.00;101873.03;2616079;36;20030;-55
2022/09/19 06:21:24;;;;;;;11.00;1.27;;;;;;;12.90;100.00;101881.41;2614741;36;20323;-55
2022/09/19 06:23:53;;;;;;;3.95;1.20;;;;;;;12.86;100.00;101887.19;2614148;36;20188;-55
2022/09/19 06:26:21;;;;;;;4.80;1.10;;;;;;;12.82;100.00;101883.88;2615863;31;20443;-54
2022/09/19 06:28:53;;;;;;;4.82;1.10;;;;;;;12.90;100.00;101892.22;2615568;36;20034;-56
2022/09/19 06:31:21;;;;;;;4.35;1.30;;;;;;;13.07;100.00;101892.66;2616573;36;20065;-57
2022/09/19 06:33:50;;;;;;;8.45;1.20;;;;;;;13.10;100.00;101897.81;2615565;31;20022;-53
2022/09/19 06:36:18;;;;;;;6.35;1.40;;;;;;;13.17;100.00;101901.72;2615196;36;20039;-54
2022/09/19 06:38:46;;;;;;;4.80;1.10;;;;;;;13.29;100.00;101903.41;2615583;36;20034;-55
2022/09/19 06:41:15;;;;;;;7.95;1.42;;;;;;;13.50;100.00;101899.94;2615773;36;20022;-54
2022/09/19 06:43:43;;;;;;;4.38;0.95;;;;;;;13.53;100.00;101899.66;2615897;31;20048;-55
2022/09/19 06:46:14;;;;;;;5.35;1.35;;;;;;;13.64;100.00;101899.59;2615335;31;20077;-56
2022/09/19 06:48:43;;;;;;;12.27;1.92;;;;;;;13.75;100.00;101895.13;2614850;36;20034;-54
2022/09/19 06:51:13;;;;;;;6.43;1.50;;;;;;;13.85;100.00;101896.03;2615677;36;20070;-58
2022/09/19 06:53:41;;;;;;;8.68;1.30;;;;;;;13.95;100.00;101899.66;2615463;36;20566;-58
2022/09/19 06:56:10;;;;;;;9.43;1.30;;;;;;;13.94;100.00;101891.69;2614608;36;20034;-55
2022/09/19 06:58:38;;;;;;;5.85;1.13;;;;;;;14.01;100.00;101907.25;2615929;36;20030;-55
2022/09/19 07:01:07;;;;;;;8.07;1.27;;;;;;;13.97;100.00;101905.81;2613117;36;20421;-55
2022/09/19 07:03:41;;;;;;;2.17;0.80;;;;;;;13.91;100.00;101905.47;2614995;36;20034;-57
2022/09/19 07:06:10;;;;;;;3.63;1.15;;;;;;;13.84;100.00;101908.72;2612617;36;20062;-55
2022/09/19 07:08:39;;;;;;;4.60;1.13;;;;;;;13.77;100.00;101907.53;2602502;36;20059;-55
2022/09/19 07:11:07;;;;;;;6.57;0.95;;;;;;;13.75;100.00;101914.06;2610272;36;20153;-57
2022/09/19 07:13:35;;;;;;;4.40;1.03;;;;;;;13.92;100.00;101904.50;2614056;36;20578;-55
2022/09/19 07:16:04;;;;;;;9.47;1.43;;;;;;;13.89;100.00;101916.44;2604750;36;20841;-56
2022/09/19 07:18:35;;;;;;;5.97;1.38;;;;;;;13.96;100.00;101914.94;2606430;36;20041;-54
2022/09/19 07:21:06;;;;;;;4.75;0.75;;;;;;;14.04;100.00;101916.13;2608022;31;20038;-57
2022/09/19 07:23:35;;;;;;;6.22;1.55;;;;;;;14.06;100.00;101919.53;2606131;36;20034;-55
2022/09/19 07:26:03;;;;;;;9.25;2.03;;;;;;;14.21;100.00;101915.50;2610772;36;20034;-56
2022/09/19 07:28:32;;;;;;;7.47;1.50;;;;;;;14.34;100.00;101926.97;2607400;36;20042;-55
2022/09/19 07:31:02;;;;;;;6.75;1.60;;;;;;;14.47;100.00;101920.47;2610982;31;20026;-55
2022/09/19 07:33:30;;;;;;;8.00;1.60;;;;;;;14.51;100.00;101925.47;2606165;36;20030;-54
2022/09/19 07:35:59;;;;;;;6.65;1.45;;;;;;;14.70;100.00;101932.00;2607963;36;20042;-55
2022/09/19 07:38:30;;;;;;;8.48;1.58;;;;;;;14.69;100.00;101923.03;2607360;31;20038;-55
2022/09/19 07:40:58;;;;;;;5.70;1.00;;;;;;;14.71;100.00;101931.88;2608159;36;20667;-55
2022/09/19 07:43:27;;;;;;;6.82;1.35;;;;;;;14.93;100.00;101929.94;2608628;36;20045;-55
2022/09/19 07:45:55;;;;;;;9.17;1.47;;;;;;;14.92;100.00;101930.09;2611372;31;20034;-51
2022/09/19 07:48:24;;;;;;;8.47;1.50;;;;;;;14.83;100.00;101935.34;2609770;36;20061;-55
2022/09/19 07:50:52;;;;;;;6.43;1.08;;;;;;;14.87;100.00;101925.09;2610473;36;21811;-54
2022/09/19 07:53:24;;;;;;;4.40;0.88;;;;;;;14.95;100.00;101941.50;2607386;36;20068;-58
2022/09/19 07:55:56;;;;;;;3.50;0.98;;;;;;;15.17;100.00;101932.28;2608844;36;20470;-57
2022/09/19 07:58:26;;;;;;;9.23;1.10;;;;;;;15.43;100.00;101937.19;2607609;31;20568;-55
2022/09/19 08:00:56;;;;;;;7.15;1.52;;;;;;;15.42;100.00;101946.31;2613864;36;20035;-54
2022/09/19 08:03:24;;;;;;;;;;;;;;;15.61;100.00;101947.31;2608576;36;20038;-58
2022/09/19 08:05:54;;;;;;;7.13;0.98;;;;;;;15.83;100.00;101946.22;2610043;36;19950;-54
2022/09/19 08:08:24;;;;;;;4.60;1.02;;;;;;;15.94;100.00;101946.03;2601081;36;20034;-57
2022/09/19 08:10:54;;;;;;;7.10;1.30;;;;;;;16.27;100.00;101941.13;2613926;36;20570;-54
2022/09/19 08:13:23;;;;;;;5.78;1.05;;;;;;;16.46;100.00;101940.22;2614995;36;20075;-55
2022/09/19 08:15:51;;;;;;;8.60;1.40;;;;;;;15.94;100.00;101946.03;2602202;36;20035;-53
2022/09/19 08:18:23;;;;;;;10.48;2.33;;;;;;;15.99;100.00;101951.91;2607746;36;20057;-53
2022/09/19 08:20:51;;;;;;;4.93;1.55;;;;;;;16.05;100.00;101954.03;2608023;36;20042;-52
2022/09/19 08:23:21;;;;;;;8.95;1.10;;;;;;;16.13;100.00;101952.44;2608679;36;20665;-57
2022/09/19 08:25:50;;;;;;;7.68;1.40;;;;;;;15.77;100.00;101970.16;2607168;36;20039;-52
2022/09/19 08:28:22;;;;;;;;;;;;;;;15.36;100.00;101983.00;2606845;36;20446;-58
2022/09/19 08:30:51;;;;;;;9.60;1.08;;;;;;;14.64;100.00;101982.19;2607572;36;19973;-53
2022/09/19 08:33:20;;;;;;;7.50;1.00;;;;;;;14.40;100.00;102000.53;2607681;36;20463;-55
2022/09/19 08:35:49;;;;;;;5.57;2.25;;;;;;;13.97;100.00;101999.69;2610377;36;20530;-55
2022/09/19 08:38:17;;;;;;;4.25;1.27;;;;;;;14.19;100.00;101998.69;2608373;36;20038;-55
2022/09/19 08:40:59;;;;;;;6.28;1.45;;;;;;;14.46;100.00;101992.75;2614997;36;20038;-55
2022/09/19 08:43:40;;;;;;;1.98;0.80;;;;;;;14.68;100.00;101991.75;2616167;36;20053;-55
2022/09/19 08:46:17;;;;;;;3.33;0.93;;;;;;;14.95;100.00;101997.59;2607522;36;20088;-57
2022/09/19 08:49:00;;;;;;;4.07;0.80;;;;;;;15.10;100.00;101998.06;2607908;36;20041;-56
2022/09/19 08:51:32;;;;;;;4.60;0.80;;;;;;;15.25;100.00;101996.66;2607859;36;20043;-52
2022/09/19 08:54:05;;;;;;;2.63;0.80;;;;;;;15.29;100.00;101995.38;2607375;36;20066;-54
2022/09/19 08:56:37;;;;;;;5.32;0.75;;;;;;;15.20;100.00;101988.94;2608608;31;20119;-52
2022/09/19 08:59:15;;;;;;;2.65;0.88;;;;;;;15.28;100.00;101993.66;2607668;36;20057;-55
2022/09/19 09:01:44;;;;;;;3.70;0.73;;;;;;;15.40;100.00;101991.72;2609967;36;20034;-56
2022/09/19 09:04:27;;;;;;;4.75;1.05;;;;;;;15.76;100.00;101984.72;2613854;36;20035;-55
2022/09/19 09:07:08;;;;;;;6.35;1.30;;;;;;;16.04;100.00;101984.91;2610976;36;20386;-56
2022/09/19 09:09:50;;;;;;;4.75;1.00;;;;;;;16.25;100.00;101973.00;2607978;31;20041;-56
2022/09/19 09:12:27;;;;;;;2.00;0.70;;;;;;;16.40;100.00;101966.13;2613146;31;20029;-58
2022/09/19 09:15:11;;;;;;;3.60;1.35;;;;;;;16.38;100.00;101973.53;2603731;36;20038;-55
2022/09/19 09:17:51;;;;;;;7.13;0.95;;;;;;;16.35;100.00;101982.00;2607307;36;20041;-55
2022/09/19 09:20:29;;;;;;;7.00;1.15;;;;;;;16.26;100.00;101982.88;2613959;36;20042;-57
2022/09/19 09:23:09;;;;;;;4.85;0.93;;;;;;;16.38;100.00;101984.41;2612217;36;20427;-55
2022/09/19 09:25:45;;;;;;;10.63;1.65;;;;;;;16.44;100.00;101985.69;2602623;36;20058;-55
2022/09/19 09:28:18;;;;;;;6.18;1.38;;;;;;;16.94;100.00;101995.41;2612014;36;21044;-55
2022/09/19 09:30:51;;;;;;;4.97;1.48;;;;;;;17.45;100.00;101991.25;2608080;36;20038;-54
2022/09/19 09:33:28;;;;;;;5.00;1.02;;;;;;;17.50;100.00;101983.50;2608495;36;20073;-53
2022/09/19 09:36:02;;;;;;;8.60;0.93;;;;;;;17.21;100.00;101990.97;2609465;36;20643;-55
2022/09/19 09:38:34;;;;;;;4.70;1.08;;;;;;;16.84;100.00;101989.97;2609163;36;20038;-54
2022/09/19 09:44:03;;;;;;;5.50;0.75;;;;;;;16.57;100.00;101993.53;2610161;31;20045;-50
2022/09/19 09:46:52;;;;;;;4.38;0.82;;;;;;;16.35;100.00;101995.56;2610348;36;20049;-55
2022/09/19 09:49:30;;;;;;;5.10;1.35;;;;;;;16.92;100.00;102000.16;2610675;36;20161;-54
2022/09/19 09:52:08;;;;;;;1.92;0.85;;;;;;;17.27;100.00;102009.41;2625454;36;20049;-51
2022/09/19 09:57:41;;;;;;;2.88;0.85;;;;;;;17.25;100.00;102011.44;2607280;36;20041;-54
2022/09/19 10:05:49;;;;;;;2.78;0.80;;;;;;;16.15;100.00;102016.50;2608824;36;20556;-52
2022/09/19 10:08:22;;;;;;;1.13;0.60;;;;;;;15.73;100.00;102028.44;2607251;36;20042;-53
2022/09/19 10:10:55;;;;;;;2.65;0.60;;;;;;;15.68;100.00;102017.19;2608178;36;20034;-54
2022/09/19 10:13:27;;;;;;;0.52;0.45;;;;;;;15.62;100.00;102020.47;2607617;36;20536;-51
2022/09/19 10:16:03;;;;;;;3.58;0.68;;;;;;;15.83;100.00;102014.06;2607711;36;20417;-51
2022/09/19 10:18:43;;;;;;;1.23;0.50;;;;;;;16.00;100.00;102013.34;2606637;36;20057;-51
2022/09/19 10:21:13;;;;;;;2.95;0.50;;;;;;;16.15;100.00;102005.63;2607614;36;20022;-50
2022/09/19 10:23:45;;;;;;;1.13;0.40;;;;;;;15.99;100.00;102006.22;2610946;36;20616;-50
2022/09/19 10:26:19;;;;;;;1.02;0.50;;;;;;;15.63;100.00;102005.88;2600015;36;20038;-50
2022/09/19 10:28:53;;;;;;;0.85;0.50;;;;;;;15.55;100.00;102009.28;2611449;36;20523;-49
2022/09/19 10:31:31;;;;;;;2.25;0.50;;;;;;;16.09;100.00;102007.06;2607541;36;20053;-50
2022/09/19 10:34:04;;;;;;;2.65;0.60;;;;;;;16.42;100.00;102004.84;2601564;36;20079;-52
2022/09/19 10:36:34;;;;;;;2.78;0.52;;;;;;;16.44;100.00;102000.16;2610970;31;20038;-53
2022/09/19 10:39:11;;;;;;;1.88;0.75;;;;;;;16.50;100.00;102000.56;2614563;36;20113;-53
2022/09/19 10:41:42;;;;;;;3.58;0.60;;;;;;;16.49;100.00;101993.38;2614245;36;20043;-53
2022/09/19 10:44:22;;;;;;;2.55;0.47;;;;;;;16.54;100.00;101988.38;2611816;36;20068;-53
2022/09/19 10:46:54;;;;;;;2.55;0.68;;;;;;;16.24;100.00;101990.31;2608359;31;20030;-51
2022/09/19 10:49:27;;;;;;;1.83;0.57;;;;;;;16.39;100.00;101988.00;2606128;36;20126;-50
2022/09/19 10:51:59;;;;;;;2.53;0.60;;;;;;;16.39;100.00;101991.56;2607274;36;20287;-50
2022/09/19 10:54:36;;;;;;;3.13;0.80;;;;;;;16.63;100.00;101998.34;2607640;36;20038;-54
2022/09/19 10:57:05;;;;;;;3.95;0.75;;;;;;;16.79;100.00;102001.31;2615638;36;20018;-53
2022/09/19 10:59:38;;;;;;;4.28;0.70;;;;;;;17.15;100.00;101998.75;2612405;36;20050;-52
2022/09/19 11:02:17;;;;;;;5.78;0.93;;;;;;;17.13;100.00;101998.03;2608547;36;20034;-53
2022/09/19 11:04:59;;;;;;;3.95;1.02;;;;;;;16.69;100.00;101995.03;2605841;36;20038;-50
2022/09/19 11:07:30;;;;;;;7.55;1.20;;;;;;;16.89;100.00;101997.75;2606235;36;20123;-53
2022/09/19 11:10:04;;;;;;;5.53;0.80;;;;;;;17.16;100.00;101994.16;2607745;36;20110;-53
2022/09/19 11:12:33;;;;;;;2.05;0.88;;;;;;;17.45;100.00;101993.13;2607940;36;20040;-51
2022/09/19 11:15:02;;;;;;;;;;;;;;;17.39;100.00;101994.59;2607367;36;20063;-50
2022/09/19 11:18:01;;;;;;;4.55;1.00;;;;;;;17.15;100.00;101998.75;2606649;36;19942;-53
2022/09/19 11:20:41;;;;;;;;;;;;;;;17.52;100.00;102000.50;2609594;36;20038;-53
2022/09/19 11:23:41;;;;;;;1.50;0.80;;;;;;;17.91;100.00;101993.09;2608095;36;19950;-50
2022/09/19 11:26:21;;;;;;;6.03;0.90;;;;;;;17.63;100.00;101993.13;2606958;31;20030;-54
2022/09/19 11:29:02;;;;;;;6.13;0.70;;;;;;;17.86;100.00;101990.81;2607437;36;20069;-49
2022/09/19 11:31:42;;;;;;;3.00;0.80;;;;;;;18.23;100.00;102000.69;2607919;36;20602;-53
2022/09/19 11:34:20;;;;;;;2.05;0.95;;;;;;;18.30;100.00;102004.47;2601398;36;20038;-54
2022/09/19 11:37:03;;;;;;;2.30;0.52;;;;;;;18.46;100.00;101995.56;2609369;36;20073;-51
2022/09/19 11:39:49;;;;;;;1.80;0.70;;;;;;;18.35;100.00;102001.28;2607064;36;20042;-53
2022/09/19 11:42:29;;;;;;;5.35;0.90;;;;;;;18.47;100.00;101993.69;2599861;36;20089;-55
2022/09/19 11:45:11;;;;;;;2.08;0.73;;;;;;;18.68;100.00;101996.00;2608004;36;20038;-53
2022/09/19 11:48:02;;;;;;;1.92;0.60;;;;;;;19.03;100.00;101999.63;2607705;36;20468;-51
2022/09/19 11:50:41;;;;;;;3.42;1.00;;;;;;;19.35;100.00;102008.97;2607472;36;20035;-52
2022/09/19 11:53:30;;;;;;;1.45;0.70;;;;;;;19.00;100.00;102014.44;2608205;36;20041;-56
2022/09/19 11:56:12;;;;;;;1.85;0.80;;;;;;;17.63;100.00;102015.75;2607199;31;20563;-53
2022/09/19 11:58:52;;;;;;;5.00;0.82;;;;;;;17.19;100.00;102022.94;2609200;36;20435;-54
2022/09/19 12:01:38;;;;;;;3.30;0.50;;;;;;;17.21;100.00;102018.19;2606809;36;20039;-52
2022/09/19 12:04:32;;;;;;;3.10;0.70;;;;;;;16.87;100.00;102010.56;2606357;36;20035;-53